Bellatrix — XUAB4 — position and weather

sailwx.info

Track history (hours):
 
Tides and Currents Weather Stations Pressure Air Temp Water Temp Dewpoint Dewpoint Depression Visibility Wind Speed Wind Dir Waves Ship Positions

Bellatrix

Last reported at 2015-Aug-15 15:21 UTC. Time now 2015-Aug-30 11:59 UTC.
Position N 37°43' E 026°32'.
Warning: this ship's position is 14 days out of date.

Length 114 m; draft 3.9 m.

Type: Cargo ship. MMSI: 515288000.

Date/timePositionNaut miles runAvg speedWind from/ knotsBaromVisibWave heightAir tempDewpointWater temp
2015-Aug-15 15:21N 37°43' E 026°32'4 5.3
2015-Aug-15 14:33N 37°47' E 026°29'  
2015-Aug-10 13:14N 44°14' E 034°06'6 7.6
2015-Aug-10 12:28N 44°18' E 034°13'6 7.1
2015-Aug-10 11:34N 44°23' E 034°19'7 6.9
2015-Aug-10 10:34N 44°27' E 034°26'7 6.9
2015-Aug-10 09:33N 44°32' E 034°34'7 6.8
2015-Aug-10 08:34N 44°36' E 034°41'7 6.8
2015-Aug-10 07:33N 44°41' E 034°48'7 7.5
2015-Aug-10 06:34N 44°43' E 034°58'8 7.8
2015-Aug-10 05:33N 44°45' E 035°09'8 7.8
2015-Aug-10 04:32N 44°46' E 035°20'35 7.8
2015-Aug-10 00:07N 44°56' E 036°06'5 8.5
2015-Aug-09 23:33N 44°57' E 036°13'8 8.2
2015-Aug-09 22:33N 44°59' E 036°24'  
Track history (hours):
 
Tides and Currents Weather Stations Pressure Air Temp Water Temp Dewpoint Dewpoint Depression Visibility Wind Speed Wind Dir Waves Ship Positions

Bellatrix

Last reported at 2015-Aug-15 15:21 UTC. Time now 2015-Aug-30 11:59 UTC.
Position N 37°43' E 026°32'.
Warning: this ship's position is 14 days out of date.

Length 114 m; draft 3.9 m.

Type: Cargo ship. MMSI: 515288000.

Date/timePositionNaut miles runAvg speedWind from/ knotsBaromVisibWave heightAir tempDewpointWater temp
2015-Aug-15 15:21N 37°43' E 026°32'4 5.3
2015-Aug-15 14:33N 37°47' E 026°29'  
2015-Aug-10 13:14N 44°14' E 034°06'6 7.6
2015-Aug-10 12:28N 44°18' E 034°13'6 7.1
2015-Aug-10 11:34N 44°23' E 034°19'7 6.9
2015-Aug-10 10:34N 44°27' E 034°26'7 6.9
2015-Aug-10 09:33N 44°32' E 034°34'7 6.8
2015-Aug-10 08:34N 44°36' E 034°41'7 6.8
2015-Aug-10 07:33N 44°41' E 034°48'7 7.5
2015-Aug-10 06:34N 44°43' E 034°58'8 7.8
2015-Aug-10 05:33N 44°45' E 035°09'8 7.8
2015-Aug-10 04:32N 44°46' E 035°20'35 7.8
2015-Aug-10 00:07N 44°56' E 036°06'5 8.5
2015-Aug-09 23:33N 44°57' E 036°13'8 8.2
2015-Aug-09 22:33N 44°59' E 036°24'  

Dump ship's entire track history